Time;durP1;ratioP1;P1;durP2;ratioP2;P2;SDS_P1;SDS_P2;PMS_P1;PMS_P2;Temp;Humidity;BMP_temperature;BMP_pressure;BME280_temperature;BME280_humidity;BME280_pressure;Samples;Min_cycle;Max_cycle;Signal;HPM_P1;HPM_P2
2022/09/16 00:00:44;;;;;;;1.45;0.47;;;;;;;10.59;100.00;100063.06;5048377;28;20052;-81
2022/09/16 00:03:12;;;;;;;4.93;0.60;;;;;;;10.63;100.00;100058.66;5062664;28;20051;-84
2022/09/16 00:05:49;;;;;;;3.78;0.50;;;;;;;10.71;100.00;100057.59;5033920;28;20095;-81
2022/09/16 00:08:17;;;;;;;1.92;0.30;;;;;;;10.75;100.00;100056.66;5032716;28;20096;-82
2022/09/16 00:10:44;;;;;;;1.48;0.38;;;;;;;10.79;100.00;100056.59;5041188;28;20052;-81
2022/09/16 00:13:13;;;;;;;3.60;0.93;;;;;;;10.81;100.00;100054.78;5045097;28;20106;-83
2022/09/16 00:15:50;;;;;;;5.53;0.73;;;;;;;10.82;100.00;100064.38;5047217;28;20056;-82
2022/09/16 00:18:17;;;;;;;1.38;0.68;;;;;;;10.73;100.00;100061.06;5030752;28;20060;-81
2022/09/16 00:20:50;;;;;;;1.02;0.63;;;;;;;10.71;100.00;100072.44;5045281;28;20083;-81
2022/09/16 00:23:19;;;;;;;2.00;0.40;;;;;;;10.63;100.00;100062.13;5046800;28;20056;-81
2022/09/16 00:25:52;;;;;;;0.65;0.30;;;;;;;10.69;100.00;100068.97;5046370;28;20095;-81
2022/09/16 00:28:21;;;;;;;3.03;0.40;;;;;;;10.76;100.00;100063.59;5062810;28;20047;-84
2022/09/16 00:30:49;;;;;;;3.40;0.43;;;;;;;10.76;100.00;100063.59;5028674;28;20029;-84
2022/09/16 00:33:16;;;;;;;2.97;0.50;;;;;;;10.71;100.00;100062.81;5046312;28;20076;-83
2022/09/16 00:35:43;;;;;;;3.70;0.40;;;;;;;10.69;100.00;100068.97;5032781;28;20395;-83
2022/09/16 00:38:12;;;;;;;2.97;0.68;;;;;;;10.61;100.00;100068.25;5029125;28;20080;-82
2022/09/16 00:40:48;;;;;;;1.88;0.40;;;;;;;10.54;100.00;100063.13;5038589;28;20123;-81
2022/09/16 00:43:19;;;;;;;3.60;1.17;;;;;;;10.56;100.00;100060.50;5034193;28;20108;-83
2022/09/16 00:45:55;;;;;;;4.93;0.73;;;;;;;10.70;100.00;100065.47;5029661;28;20092;-84
2022/09/16 00:48:26;;;;;;;2.80;0.52;;;;;;;10.67;100.00;100065.53;5038138;28;20140;-83
2022/09/16 00:51:01;;;;;;;2.03;0.55;;;;;;;10.67;100.00;100061.16;5046079;28;20041;-83
2022/09/16 00:53:42;;;;;;;2.58;0.70;;;;;;;10.65;100.00;100068.19;5031528;28;20629;-85
2022/09/16 00:56:13;;;;;;;1.55;0.40;;;;;;;10.59;100.00;100066.53;5048832;28;20060;-85
2022/09/16 00:58:50;;;;;;;5.68;0.60;;;;;;;10.69;100.00;100066.34;5035263;28;20340;-84
2022/09/16 01:01:17;;;;;;;1.38;0.57;;;;;;;10.58;100.00;100070.03;5058583;28;20059;-82
2022/09/16 01:04:00;;;;;;;0.95;0.75;;;;;;;10.52;100.00;100053.59;5029413;28;20068;-83
2022/09/16 01:06:28;;;;;;;5.50;1.08;;;;;;;10.51;100.00;100059.75;5017112;28;20079;-81
2022/09/16 01:08:57;;;;;;;5.63;1.08;;;;;;;10.46;100.00;100051.97;5047553;28;20048;-82
2022/09/16 01:11:24;;;;;;;5.38;0.63;;;;;;;10.43;100.00;100060.72;5062590;28;20116;-81
2022/09/16 01:13:52;;;;;;;5.88;0.40;;;;;;;10.45;100.00;100049.38;5059975;28;20071;-84
2022/09/16 01:16:31;;;;;;;4.28;0.63;;;;;;;10.53;100.00;100065.78;5048661;28;20049;-83
2022/09/16 01:19:34;;;;;;;2.40;1.15;;;;;;;10.65;100.00;100070.81;5047241;28;20021;-85
2022/09/16 01:22:35;;;;;;;6.38;0.63;;;;;;;10.77;100.00;100064.47;5030579;28;20068;-82
2022/09/16 01:25:16;;;;;;;1.73;0.65;;;;;;;10.93;100.00;100067.66;5064606;28;20044;-82
2022/09/16 01:28:40;;;;;;;9.32;0.57;;;;;;;11.07;100.00;100065.63;5062722;28;20068;-82
2022/09/16 01:31:32;;;;;;;6.18;1.75;;;;;;;11.22;100.00;100067.06;5050272;28;20045;-82
2022/09/16 01:34:18;;;;;;;1.15;0.40;;;;;;;11.30;100.00;100066.03;5044896;28;20064;-82
2022/09/16 01:37:06;;;;;;;0.47;0.30;;;;;;;11.41;100.00;100056.19;5023868;28;20057;-83
2022/09/16 01:40:14;;;;;;;2.65;0.68;;;;;;;11.44;100.00;100056.09;5028972;28;20042;-81
2022/09/16 01:43:02;;;;;;;4.75;0.70;;;;;;;11.45;100.00;100055.22;5036788;28;20032;-83
2022/09/16 01:45:56;;;;;;;2.78;0.55;;;;;;;11.51;100.00;100062.06;5027969;28;20041;-82
2022/09/16 01:48:48;;;;;;;3.97;0.70;;;;;;;11.48;100.00;100057.75;5021113;28;20117;-84
2022/09/16 01:51:39;;;;;;;1.65;0.60;;;;;;;11.44;100.00;100053.47;5039710;28;20041;-82
2022/09/16 01:54:28;;;;;;;0.75;0.75;;;;;;;11.42;100.00;100055.28;5027986;28;20073;-82
2022/09/16 01:57:10;;;;;;;4.43;0.68;;;;;;;11.49;100.00;100056.88;5035722;28;20037;-83
2022/09/16 02:00:16;;;;;;;5.68;0.75;;;;;;;11.47;100.00;100056.06;5023142;28;20046;-84
2022/09/16 02:03:02;;;;;;;3.42;0.40;;;;;;;11.39;100.00;100053.59;5015365;28;20152;-83
2022/09/16 02:05:39;;;;;;;3.55;0.50;;;;;;;11.26;100.00;100062.59;5011779;28;20087;-83
2022/09/16 02:08:13;;;;;;;3.88;0.50;;;;;;;11.09;100.00;100049.88;5027915;28;20044;-81
2022/09/16 02:10:59;;;;;;;2.53;0.65;;;;;;;11.11;100.00;100057.69;5028753;28;20093;-82
2022/09/16 02:13:40;;;;;;;3.65;1.13;;;;;;;11.10;100.00;100054.22;5018391;28;20089;-83
2022/09/16 02:16:18;;;;;;;2.70;0.80;;;;;;;11.12;100.00;100054.19;5031917;28;20050;-84
2022/09/16 02:18:53;;;;;;;4.03;0.80;;;;;;;11.12;100.00;100052.44;5026614;28;20037;-84
2022/09/16 02:21:25;;;;;;;5.80;0.60;;;;;;;11.13;100.00;100051.50;5028456;28;20052;-83
2022/09/16 02:23:58;;;;;;;2.50;0.70;;;;;;;11.21;100.00;100046.13;5019945;28;20042;-85
2022/09/16 02:26:33;;;;;;;2.35;0.60;;;;;;;11.28;100.00;100050.34;5019470;28;20045;-82
2022/09/16 02:29:02;;;;;;;3.22;0.52;;;;;;;11.32;100.00;100048.53;5023216;28;20038;-84
2022/09/16 02:31:36;;;;;;;6.35;0.50;;;;;;;11.40;100.00;100041.34;5021960;28;20042;-81
2022/09/16 02:34:11;;;;;;;4.53;0.43;;;;;;;11.47;100.00;100042.94;5023299;28;20068;-85
2022/09/16 02:36:42;;;;;;;2.88;0.85;;;;;;;11.47;100.00;100042.94;5025316;28;20042;-83
2022/09/16 02:39:15;;;;;;;4.88;1.00;;;;;;;11.44;100.00;100042.16;5042089;28;20037;-82
2022/09/16 02:41:42;;;;;;;4.10;0.40;;;;;;;11.42;100.00;100039.56;5039090;28;20580;-81
2022/09/16 02:44:11;;;;;;;1.00;0.40;;;;;;;11.47;100.00;100042.06;5014064;28;20068;-82
2022/09/16 02:47:06;;;;;;;3.22;0.40;;;;;;;11.45;100.00;100030.78;5024719;28;20052;-84
2022/09/16 02:50:06;;;;;;;2.20;0.57;;;;;;;11.44;100.00;100042.16;5046034;28;20107;-82
2022/09/16 02:52:41;;;;;;;1.23;0.43;;;;;;;11.32;100.00;100043.28;5027860;28;20067;-83
2022/09/16 02:55:20;;;;;;;5.97;1.15;;;;;;;11.33;100.00;100045.88;5039497;28;20109;-81
2022/09/16 02:57:47;;;;;;;3.83;0.80;;;;;;;11.27;100.00;100046.00;5053204;28;20041;-84
2022/09/16 03:00:14;;;;;;;1.42;0.35;;;;;;;11.15;100.00;100038.41;5055712;28;20508;-81
2022/09/16 03:02:41;;;;;;;3.85;0.70;;;;;;;11.13;100.00;100046.28;5037794;28;20025;-84
2022/09/16 03:05:10;;;;;;;2.47;0.43;;;;;;;11.05;100.00;100046.44;5047297;28;20050;-81
2022/09/16 03:07:41;;;;;;;6.72;0.82;;;;;;;11.00;100.00;100050.06;5044402;28;20045;-80
2022/09/16 03:10:13;;;;;;;3.05;0.47;;;;;;;10.91;100.00;100051.97;5050034;28;20046;-84
2022/09/16 03:13:00;;;;;;;1.75;0.70;;;;;;;10.93;100.00;100046.69;5031181;28;20046;-83
2022/09/16 03:16:00;;;;;;;1.65;0.60;;;;;;;10.99;100.00;100043.09;5039649;28;20033;-84
2022/09/16 03:19:09;;;;;;;6.80;1.20;;;;;;;11.05;100.00;100042.97;5043134;28;20060;-84
2022/09/16 03:21:57;;;;;;;1.40;0.38;;;;;;;11.02;100.00;100046.50;5030666;28;20021;-84
2022/09/16 03:24:48;;;;;;;1.92;0.60;;;;;;;11.04;100.00;100044.75;5031314;28;20048;-83
2022/09/16 03:27:31;;;;;;;4.72;0.77;;;;;;;11.00;100.00;100048.31;5045968;28;20061;-81
2022/09/16 03:30:09;;;;;;;4.18;1.10;;;;;;;10.89;100.00;100048.50;5042512;28;20041;-81
2022/09/16 03:32:56;;;;;;;4.35;0.80;;;;;;;10.78;100.00;100047.88;5035990;28;20462;-82
2022/09/16 03:35:42;;;;;;;5.22;0.98;;;;;;;10.72;100.00;100058.47;5045472;28;20094;-81
2022/09/16 03:38:12;;;;;;;5.75;0.70;;;;;;;10.73;100.00;100049.72;5042927;28;20069;-82
2022/09/16 03:40:38;;;;;;;4.18;0.82;;;;;;;10.81;100.00;100053.03;5030590;28;20046;-83
2022/09/16 03:43:16;;;;;;;4.05;0.85;;;;;;;10.85;100.00;100040.75;5045394;28;20099;-82
2022/09/16 03:45:46;;;;;;;3.30;0.55;;;;;;;10.96;100.00;100035.31;5042986;28;20152;-80
2022/09/16 03:48:13;;;;;;;1.30;0.63;;;;;;;11.08;100.00;100041.16;5028880;28;20052;-84
2022/09/16 03:50:40;;;;;;;2.85;0.40;;;;;;;11.18;100.00;100028.72;5040741;28;20041;-82
2022/09/16 03:53:07;;;;;;;5.85;0.55;;;;;;;11.18;100.00;100035.72;5019045;28;20121;-82
2022/09/16 03:55:40;;;;;;;4.18;0.40;;;;;;;11.19;100.00;100034.81;5042720;28;20052;-82
2022/09/16 03:58:06;;;;;;;3.60;0.70;;;;;;;11.19;100.00;100027.81;5043654;28;20097;-83
2022/09/16 04:00:33;;;;;;;4.38;0.68;;;;;;;11.22;100.00;100035.63;5043649;28;20041;-81
2022/09/16 04:03:00;;;;;;;3.50;0.80;;;;;;;11.29;100.00;100027.63;5041170;28;20061;-83
2022/09/16 04:05:27;;;;;;;5.45;0.70;;;;;;;11.24;100.00;100031.19;5044229;28;20052;-82
2022/09/16 04:07:57;;;;;;;4.20;0.88;;;;;;;11.25;100.00;100037.28;5043821;28;20053;-82
2022/09/16 04:10:23;;;;;;;2.10;0.63;;;;;;;11.22;100.00;100030.41;5060450;28;20125;-81
2022/09/16 04:12:52;;;;;;;3.83;0.50;;;;;;;11.23;100.00;100028.63;5062365;28;20033;-84
2022/09/16 04:15:18;;;;;;;5.03;0.60;;;;;;;11.20;100.00;100029.56;5041663;28;20042;-83
2022/09/16 04:17:45;;;;;;;2.15;0.40;;;;;;;11.19;100.00;100019.09;5035670;28;20161;-83
2022/09/16 04:20:11;;;;;;;5.57;1.42;;;;;;;11.23;100.00;100024.22;5024103;28;20046;-83
2022/09/16 04:22:38;;;;;;;2.53;1.30;;;;;;;11.23;100.00;100018.13;5024425;28;21505;-80
2022/09/16 04:25:08;;;;;;;3.13;0.63;;;;;;;11.20;100.00;100013.84;5043926;28;20051;-82
2022/09/16 04:27:35;;;;;;;3.13;0.60;;;;;;;11.15;100.00;100014.84;5034781;28;20045;-82
2022/09/16 04:30:02;;;;;;;4.57;0.60;;;;;;;11.16;100.00;100013.91;5040995;28;20045;-81
2022/09/16 04:32:28;;;;;;;2.80;1.02;;;;;;;11.17;100.00;100013.03;5051436;28;20037;-81
2022/09/16 04:34:55;;;;;;;4.22;0.90;;;;;;;11.20;100.00;100015.59;5044783;28;20053;-81
2022/09/16 04:37:21;;;;;;;2.03;0.90;;;;;;;11.18;100.00;100017.38;5039153;28;20064;-82
2022/09/16 04:39:48;;;;;;;3.42;0.82;;;;;;;11.22;100.00;100016.41;5029549;28;20049;-80
2022/09/16 04:42:14;;;;;;;2.00;1.17;;;;;;;11.22;100.00;100012.06;5046806;28;20057;-81
2022/09/16 04:44:41;;;;;;;2.40;0.95;;;;;;;11.15;100.00;100010.44;5014735;28;20042;-81
2022/09/16 04:47:07;;;;;;;4.03;1.30;;;;;;;11.12;100.00;100012.25;5034350;28;20048;-85
2022/09/16 04:49:34;;;;;;;2.28;0.75;;;;;;;11.11;100.00;100013.16;5035962;28;20045;-81
2022/09/16 04:52:00;;;;;;;1.08;0.75;;;;;;;11.09;100.00;100015.81;5034617;28;20038;-83
2022/09/16 04:54:27;;;;;;;2.45;0.93;;;;;;;11.09;100.00;100015.81;5035241;28;20042;-83
2022/09/16 04:56:53;;;;;;;1.60;0.68;;;;;;;11.08;100.00;100017.59;5038150;28;20040;-85
2022/09/16 04:59:20;;;;;;;2.80;1.15;;;;;;;11.07;100.00;100012.38;5034048;28;20073;-84
2022/09/16 05:01:47;;;;;;;4.35;1.38;;;;;;;11.02;100.00;100020.31;5032983;28;20099;-83
2022/09/16 05:04:13;;;;;;;1.95;1.20;;;;;;;10.98;100.00;100016.03;5043807;28;20049;-81
2022/09/16 05:06:41;;;;;;;1.00;0.68;;;;;;;10.98;100.00;100018.66;5039650;28;20037;-84
2022/09/16 05:09:10;;;;;;;6.25;1.83;;;;;;;10.96;100.00;100014.34;5042126;28;20132;-84
2022/09/16 05:11:39;;;;;;;2.63;1.20;;;;;;;10.95;100.00;100021.34;5040945;28;20069;-84
2022/09/16 05:14:08;;;;;;;6.63;1.98;;;;;;;10.93;100.00;100023.97;5030340;28;20045;-84
2022/09/16 05:16:35;;;;;;;4.47;1.60;;;;;;;10.90;100.00;100024.06;5028792;28;20464;-81
2022/09/16 05:19:03;;;;;;;1.60;1.17;;;;;;;10.88;100.00;100036.31;5029419;28;20140;-85
2022/09/16 05:21:33;;;;;;;2.47;1.65;;;;;;;10.88;100.00;100023.22;5047658;28;20052;-82
2022/09/16 05:24:03;;;;;;;5.82;1.83;;;;;;;10.93;100.00;100025.75;5029505;28;20033;-85
2022/09/16 05:26:34;;;;;;;2.45;1.13;;;;;;;10.99;100.00;100030.00;5026330;28;20034;-84
2022/09/16 05:29:03;;;;;;;4.88;1.35;;;;;;;11.03;100.00;100027.28;5044173;28;20049;-83
2022/09/16 05:31:34;;;;;;;3.35;1.23;;;;;;;11.04;100.00;100039.50;5034764;28;20029;-84
2022/09/16 05:34:07;;;;;;;2.22;1.13;;;;;;;11.07;100.00;100025.47;5046334;28;20054;-86
2022/09/16 05:36:37;;;;;;;6.30;1.33;;;;;;;11.10;100.00;100025.41;5030981;28;20063;-85
2022/09/16 05:39:07;;;;;;;6.85;1.50;;;;;;;11.14;100.00;100019.19;5042334;28;20041;-86
2022/09/16 05:41:34;;;;;;;3.17;1.55;;;;;;;11.20;100.00;100020.84;5046755;28;20035;-87
2022/09/16 05:44:01;;;;;;;1.60;1.20;;;;;;;11.22;100.00;100022.53;5029173;28;20042;-84
2022/09/16 05:46:30;;;;;;;3.28;1.55;;;;;;;11.24;100.00;100022.50;5040629;28;20065;-85
2022/09/16 05:48:59;;;;;;;1.85;1.10;;;;;;;11.29;100.00;100018.00;5032282;28;20057;-84
2022/09/16 05:51:26;;;;;;;2.67;1.25;;;;;;;11.31;100.00;100025.84;5026428;28;20050;-85
2022/09/16 05:53:54;;;;;;;5.10;1.52;;;;;;;11.30;100.00;100026.72;5045729;28;20064;-84
2022/09/16 05:56:32;;;;;;;2.58;1.60;;;;;;;11.26;100.00;100025.91;5020984;28;20038;-87
2022/09/16 05:59:02;;;;;;;12.18;1.58;;;;;;;11.17;100.00;100029.63;5036983;28;20079;-85
2022/09/16 06:01:33;;;;;;;6.78;1.73;;;;;;;11.16;100.00;100021.78;5018988;28;20036;-86
2022/09/16 06:04:07;;;;;;;6.22;1.70;;;;;;;11.21;100.00;100030.41;5037905;28;20065;-86
2022/09/16 06:06:37;;;;;;;4.90;1.40;;;;;;;11.23;100.00;100032.09;5040954;28;20025;-84
2022/09/16 06:09:13;;;;;;;3.47;0.90;;;;;;;11.33;100.00;100027.53;5021906;28;20100;-84
2022/09/16 06:11:44;;;;;;;2.25;1.10;;;;;;;11.45;100.00;100021.16;5021040;28;20073;-86
2022/09/16 06:14:18;;;;;;;4.28;1.10;;;;;;;11.66;100.00;100019.78;5029401;28;20046;-83
2022/09/16 06:16:46;;;;;;;3.95;1.02;;;;;;;11.91;100.00;100011.31;5017560;28;20099;-84
2022/09/16 06:19:16;;;;;;;3.63;0.98;;;;;;;11.99;98.06;100009.38;5039668;28;20096;-85
2022/09/16 06:21:44;;;;;;;3.83;0.85;;;;;;;11.92;97.35;100007.81;5017230;28;20114;-84
2022/09/16 06:24:14;;;;;;;3.25;0.70;;;;;;;11.85;97.65;100021.94;5033385;28;20033;-86
2022/09/16 06:26:43;;;;;;;1.38;1.00;;;;;;;11.77;98.56;100010.78;5018581;28;20045;-85
2022/09/16 06:29:11;;;;;;;6.57;0.85;;;;;;;11.76;98.31;100023.06;5019184;28;20050;-84
2022/09/16 06:31:38;;;;;;;1.25;0.93;;;;;;;11.77;98.56;100022.13;5032797;28;20085;-84
2022/09/16 06:34:07;;;;;;;3.42;0.60;;;;;;;11.88;97.38;100016.66;5040766;28;20111;-86
2022/09/16 06:36:38;;;;;;;1.85;0.63;;;;;;;12.00;95.98;100012.88;5026109;28;20602;-83
2022/09/16 06:39:08;;;;;;;1.50;0.55;;;;;;;12.28;93.25;100004.28;5037204;28;20042;-86
2022/09/16 06:41:35;;;;;;;3.70;0.60;;;;;;;12.51;91.74;100015.03;5018953;28;20080;-85
2022/09/16 06:44:02;;;;;;;5.18;0.65;;;;;;;12.76;88.43;100016.97;5035955;28;20030;-86
2022/09/16 06:46:30;;;;;;;2.28;0.80;;;;;;;12.91;87.40;100011.28;5017487;28;20357;-86
2022/09/16 06:48:58;;;;;;;1.10;0.30;;;;;;;12.82;87.73;100011.56;5020431;28;20033;-85
2022/09/16 06:51:45;;;;;;;0.93;0.60;;;;;;;12.57;88.77;100021.91;5014725;28;20481;-83
2022/09/16 06:54:11;;;;;;;1.25;0.43;;;;;;;12.58;89.14;100023.63;5013321;28;20077;-83
2022/09/16 06:56:40;;;;;;;2.85;0.40;;;;;;;12.78;88.33;100023.06;5029730;28;20843;-84
2022/09/16 06:59:08;;;;;;;3.28;0.40;;;;;;;12.95;86.16;100019.97;5030354;28;20081;-86
2022/09/16 07:01:35;;;;;;;1.30;0.85;;;;;;;13.14;84.30;100017.66;5018676;28;20046;-84
2022/09/16 07:04:07;;;;;;;2.63;0.50;;;;;;;13.56;82.53;100016.41;5021303;28;20057;-84
2022/09/16 07:06:34;;;;;;;3.78;0.68;;;;;;;13.87;79.83;100016.28;5018144;28;20053;-84
2022/09/16 07:09:00;;;;;;;2.65;0.50;;;;;;;14.25;78.42;100013.28;5012597;28;20034;-85
2022/09/16 07:11:28;;;;;;;1.05;0.50;;;;;;;14.45;77.25;100020.47;5027996;28;20046;-85
2022/09/16 07:13:55;;;;;;;2.85;0.40;;;;;;;14.75;74.27;100017.69;5030033;28;20448;-85
2022/09/16 07:16:25;;;;;;;4.72;0.82;;;;;;;14.89;73.12;100015.41;5032493;28;20029;-87
2022/09/16 07:18:58;;;;;;;0.70;0.43;;;;;;;15.21;71.91;100009.81;5026941;28;20039;-84
2022/09/16 07:21:29;;;;;;;4.38;0.28;;;;;;;15.27;70.75;100016.66;5069754;22;21492;-83
2022/09/16 07:24:01;;;;;;;3.08;0.63;;;;;;;15.24;71.24;100020.28;5037573;28;20175;-84
2022/09/16 07:26:34;;;;;;;2.45;0.57;;;;;;;15.48;70.05;100015.81;5030366;28;20052;-84
2022/09/16 07:29:08;;;;;;;3.72;0.43;;;;;;;15.73;68.27;100011.34;5066956;28;20057;-85
2022/09/16 07:31:39;;;;;;;1.67;0.68;;;;;;;16.06;67.15;100010.88;5048732;28;20049;-84
2022/09/16 07:34:18;;;;;;;2.20;0.65;;;;;;;16.22;65.88;100017.25;5052136;28;20036;-85
2022/09/16 07:36:50;;;;;;;2.53;0.60;;;;;;;16.54;64.25;100015.84;5045806;28;20049;-84
2022/09/16 07:39:20;;;;;;;0.37;0.30;;;;;;;16.66;63.52;100016.22;5023292;28;20102;-84
2022/09/16 07:41:48;;;;;;;4.93;0.60;;;;;;;16.61;62.90;100020.84;5039211;28;20033;-84
2022/09/16 07:44:19;;;;;;;3.40;0.50;;;;;;;16.48;63.21;100024.03;5025966;28;20047;-84
2022/09/16 07:46:52;;;;;;;3.97;0.63;;;;;;;16.21;63.47;100024.28;5045033;28;20045;-84
2022/09/16 07:49:20;;;;;;;3.77;0.77;;;;;;;16.12;64.95;100023.84;5018264;28;20053;-84
2022/09/16 07:51:51;;;;;;;4.10;0.52;;;;;;;16.65;63.33;100028.59;5033200;28;21663;-84
2022/09/16 07:54:20;;;;;;;4.90;0.70;;;;;;;17.00;60.25;100026.16;5019281;28;20051;-84
2022/09/16 07:56:50;;;;;;;6.82;0.60;;;;;;;17.00;60.19;100030.59;5037047;28;20500;-86
2022/09/16 07:59:28;;;;;;;1.75;0.80;;;;;;;17.11;59.49;100025.66;5020786;28;20052;-84
2022/09/16 08:02:01;;;;;;;1.55;0.65;;;;;;;17.64;58.42;100028.50;5036713;28;20067;-84
2022/09/16 08:04:30;;;;;;;0.28;0.20;;;;;;;18.10;57.25;100023.59;5030496;28;20061;-85
2022/09/16 08:06:57;;;;;;;1.48;0.32;;;;;;;18.77;54.25;100026.38;5012744;28;20132;-84
2022/09/16 08:09:24;;;;;;;2.55;0.52;;;;;;;19.22;52.95;100031.09;5035944;28;20056;-86
2022/09/16 08:11:58;;;;;;;5.63;0.75;;;;;;;18.53;54.86;100028.50;5047149;28;20065;-86
2022/09/16 08:14:28;;;;;;;3.47;0.70;;;;;;;17.65;57.22;100031.09;5046238;28;20052;-84
2022/09/16 08:17:02;;;;;;;2.53;0.45;;;;;;;16.81;59.00;100030.53;5043874;28;20047;-83
2022/09/16 08:19:29;;;;;;;1.05;0.45;;;;;;;16.67;59.96;100029.38;5047413;28;20033;-85
2022/09/16 08:21:56;;;;;;;0.95;0.35;;;;;;;16.43;60.88;100022.53;5060942;28;20056;-84
2022/09/16 08:24:23;;;;;;;1.45;1.13;;;;;;;15.99;63.18;100024.34;5081361;28;20021;-84
2022/09/16 08:26:51;;;;;;;3.47;1.02;;;;;;;16.51;61.51;100030.97;5081801;28;20080;-84
2022/09/16 08:29:21;;;;;;;3.03;0.65;;;;;;;16.66;59.78;100026.78;5046393;28;20021;-84
2022/09/16 08:31:48;;;;;;;3.45;0.68;;;;;;;16.96;58.17;100026.38;5067075;28;20091;-84
2022/09/16 08:34:16;;;;;;;3.22;1.45;;;;;;;17.68;55.76;100025.63;5036049;28;20061;-84
2022/09/16 08:36:44;;;;;;;4.72;0.55;;;;;;;17.54;54.91;100017.50;5037384;28;20500;-85
2022/09/16 08:39:11;;;;;;;7.20;1.13;;;;;;;18.05;54.35;100027.44;5019762;28;20049;-85
2022/09/16 08:42:01;;;;;;;3.25;0.50;;;;;;;18.56;53.06;100023.03;5047134;28;20105;-85
2022/09/16 08:44:41;;;;;;;3.08;1.20;;;;;;;19.03;51.83;100017.97;5051818;28;20980;-85
2022/09/16 08:47:55;;;;;;;2.10;0.50;;;;;;;19.49;49.39;100007.47;5037539;28;20047;-85
2022/09/16 08:50:36;;;;;;;1.60;0.40;;;;;;;19.52;48.98;100025.88;5050514;28;20098;-85
2022/09/16 08:53:12;;;;;;;3.45;0.50;;;;;;;19.19;49.28;100016.19;5035791;28;20140;-85
2022/09/16 08:55:46;;;;;;;1.45;0.47;;;;;;;19.42;48.06;100028.16;5016587;28;20169;-85
2022/09/16 08:58:31;;;;;;;4.03;0.60;;;;;;;19.46;47.47;100039.47;5016638;28;20548;-85
2022/09/16 09:01:18;;;;;;;3.80;0.93;;;;;;;19.69;47.02;100016.94;5018115;28;20118;-85
2022/09/16 09:03:48;;;;;;;5.20;1.27;;;;;;;20.41;46.10;100029.63;5013894;28;20127;-85
2022/09/16 09:06:43;;;;;;;4.00;0.70;;;;;;;21.09;44.64;100013.06;5018367;28;20044;-85
2022/09/16 09:10:10;;;;;;;4.57;0.90;;;;;;;21.31;42.99;100001.91;5035824;28;20474;-84
2022/09/16 09:12:49;;;;;;;4.65;0.85;;;;;;;20.59;44.30;100019.69;5036928;28;20475;-85
2022/09/16 09:15:22;;;;;;;2.42;0.52;;;;;;;20.05;45.50;100022.88;5036067;28;20116;-87
2022/09/16 09:18:38;;;;;;;2.22;0.77;;;;;;;20.75;43.69;100017.81;5051259;28;20090;-86
2022/09/16 09:21:26;;;;;;;2.13;0.55;;;;;;;21.63;41.33;100024.75;5029536;28;20514;-85
2022/09/16 09:24:27;;;;;;;1.88;0.85;;;;;;;20.91;42.12;100011.53;5042438;28;20041;-86
2022/09/16 09:27:06;;;;;;;3.20;0.73;;;;;;;20.21;43.48;100022.81;5008450;28;20049;-86
2022/09/16 09:30:01;;;;;;;1.35;0.60;;;;;;;19.83;43.70;100009.06;5019678;28;20037;-86
2022/09/16 09:33:19;;;;;;;2.35;0.93;;;;;;;20.29;43.62;100004.66;5040392;28;20108;-86
2022/09/16 09:36:31;;;;;;;4.72;1.20;;;;;;;19.14;46.51;100026.19;5017584;28;20140;-86
2022/09/16 09:39:27;;;;;;;5.97;0.93;;;;;;;17.23;52.57;100033.97;5028462;28;20053;-86
2022/09/16 09:42:31;;;;;;;4.35;0.85;;;;;;;17.00;52.27;100023.53;5029905;28;20045;-85
2022/09/16 09:45:26;;;;;;;5.88;1.42;;;;;;;18.95;47.71;100005.97;5030194;28;20070;-85
2022/09/16 09:48:23;;;;;;;3.00;0.68;;;;;;;20.53;43.47;100009.41;5011208;28;20076;-84
2022/09/16 09:50:53;;;;;;;2.17;0.60;;;;;;;22.31;40.82;99994.44;5031168;28;20438;-85
2022/09/16 09:53:41;;;;;;;3.28;0.60;;;;;;;23.75;36.07;99994.06;5045968;28;20040;-84
2022/09/16 09:56:22;;;;;;;3.85;1.05;;;;;;;23.12;37.35;99994.19;5031005;28;20500;-84
2022/09/16 09:59:40;;;;;;;2.65;0.57;;;;;;;21.39;39.25;100004.03;5016919;28;20059;-84
2022/09/16 10:02:21;;;;;;;3.88;1.00;;;;;;;19.68;42.50;100007.25;5046708;28;20048;-85
2022/09/16 10:04:48;;;;;;;3.13;0.55;;;;;;;19.81;42.34;100000.31;5014593;28;20052;-86
2022/09/16 10:07:21;;;;;;;4.78;0.98;;;;;;;21.75;39.70;99997.31;5057119;28;20057;-86
2022/09/16 10:10:16;;;;;;;2.72;0.70;;;;;;;21.92;38.45;99990.84;5041857;28;20041;-86
2022/09/16 10:12:45;;;;;;;3.40;0.75;;;;;;;20.57;40.48;99997.63;5036309;28;20053;-86
2022/09/16 10:15:29;;;;;;;1.85;0.52;;;;;;;21.10;40.33;99989.97;5015101;28;20123;-85
2022/09/16 10:18:02;;;;;;;2.65;0.63;;;;;;;21.98;38.36;99985.13;5019217;28;20060;-85
2022/09/16 10:20:37;;;;;;;2.97;0.80;;;;;;;20.79;39.69;99990.09;5001497;28;20059;-86
2022/09/16 10:23:22;;;;;;;4.60;1.27;;;;;;;19.75;42.11;99992.69;5030558;28;20055;-86
2022/09/16 10:25:49;;;;;;;8.02;0.60;;;;;;;21.10;39.98;99992.63;5039596;28;20052;-86
2022/09/16 10:28:25;;;;;;;5.50;0.85;;;;;;;22.10;38.02;99987.91;5043738;28;20139;-86
2022/09/16 10:30:56;;;;;;;3.33;1.00;;;;;;;21.62;38.56;99983.94;5022323;28;20056;-86
2022/09/16 10:33:41;;;;;;;4.78;1.02;;;;;;;20.80;39.94;99982.97;5020590;28;20049;-86
2022/09/16 10:36:19;;;;;;;1.80;0.85;;;;;;;20.97;40.21;99972.09;5047857;28;20047;-86
2022/09/16 10:39:00;;;;;;;5.32;0.80;;;;;;;20.92;39.35;99971.53;5030233;28;20057;-80
2022/09/16 10:41:50;;;;;;;3.47;0.52;;;;;;;19.20;42.01;99974.59;5016481;28;20094;-85
2022/09/16 10:44:34;;;;;;;6.55;1.23;;;;;;;18.75;43.44;99980.50;5029186;28;20059;-86
2022/09/16 10:47:09;;;;;;;3.08;0.52;;;;;;;20.21;40.43;99975.00;5016276;28;20132;-86
2022/09/16 10:50:00;;;;;;;3.90;0.60;;;;;;;22.15;36.87;99969.81;5044688;28;20047;-86
2022/09/16 10:52:45;;;;;;;4.07;0.82;;;;;;;23.00;34.39;99958.56;5010582;28;20041;-87
2022/09/16 10:55:28;;;;;;;4.38;0.80;;;;;;;24.40;32.37;99962.44;5014441;28;20068;-87
2022/09/16 10:58:16;;;;;;;5.25;0.90;;;;;;;25.03;30.88;99945.91;5048978;28;20049;-85
2022/09/16 11:00:59;;;;;;;5.97;1.10;;;;;;;23.51;31.79;99959.38;5037670;28;20044;-86
2022/09/16 11:03:55;;;;;;;2.38;0.60;;;;;;;23.52;31.56;99950.38;5018178;28;20171;-85
2022/09/16 11:06:56;;;;;;;8.02;1.35;;;;;;;21.40;35.43;99954.34;5016443;28;20458;-85
2022/09/16 11:10:22;;;;;;;6.78;1.23;;;;;;;21.44;35.98;99950.50;5031412;28;20049;-86
2022/09/16 11:13:13;;;;;;;5.22;0.63;;;;;;;23.73;32.92;99945.25;5005206;28;20067;-87
2022/09/16 11:16:25;;;;;;;3.03;0.98;;;;;;;24.58;30.15;99941.44;5030448;28;20122;-87
2022/09/16 11:19:35;;;;;;;5.78;1.10;;;;;;;24.77;30.47;99936.34;5053392;28;20072;-86
2022/09/16 11:22:17;;;;;;;3.55;0.70;;;;;;;25.37;30.56;99932.44;5052703;28;21014;-87
2022/09/16 11:25:21;;;;;;;5.45;0.70;;;;;;;26.51;28.97;99924.66;5035973;28;20108;-88
2022/09/16 11:28:23;;;;;;;4.80;0.95;;;;;;;26.83;27.57;99932.56;5055921;28;20125;-86
2022/09/16 11:31:13;;;;;;;3.63;0.88;;;;;;;25.15;30.31;99941.38;5026291;28;20888;-86
2022/09/16 11:33:57;;;;;;;2.50;0.47;;;;;;;25.16;30.35;99922.53;5054210;28;20040;-85
2022/09/16 11:36:35;;;;;;;4.68;1.15;;;;;;;25.58;29.79;99929.84;5032245;28;20055;-86
2022/09/16 11:40:01;;;;;;;3.35;0.93;;;;;;;25.34;30.01;99930.84;5034797;28;20132;-86
2022/09/16 11:42:52;;;;;;;3.65;0.70;;;;;;;25.83;30.28;99931.28;5067260;28;20052;-86
2022/09/16 11:45:44;;;;;;;5.88;0.85;;;;;;;25.19;30.86;99924.94;5019977;28;20052;-86
2022/09/16 11:48:53;;;;;;;4.03;0.70;;;;;;;22.28;34.45;99933.31;5031685;28;20078;-86
2022/09/16 11:51:59;;;;;;;4.68;1.05;;;;;;;20.28;38.09;99957.75;5048306;28;20056;-86
2022/09/16 11:54:47;;;;;;;4.13;0.82;;;;;;;18.71;44.45;99964.84;5048720;28;20053;-87
2022/09/16 11:57:21;;;;;;;7.30;1.45;;;;;;;17.82;48.72;99969.38;5026321;28;20167;-86
2022/09/16 12:00:11;;;;;;;4.28;0.70;;;;;;;16.98;52.75;99966.34;5030661;28;20056;-86
2022/09/16 12:03:03;;;;;;;8.77;0.85;;;;;;;16.85;52.93;99968.69;5029271;28;20057;-87
2022/09/16 12:05:35;;;;;;;2.15;0.82;;;;;;;17.28;51.01;99960.56;5030025;28;20063;-85
2022/09/16 12:08:21;;;;;;;1.88;0.90;;;;;;;19.21;47.36;99955.09;5028668;28;20051;-86